Upper Montclair, New Jersey
Current Conditions -  °F | °C
As of 9:53 PM on Sunday 21 Dec 2014 (Local Time) from KCDW Reporting Station
Overcast Overcast  
Wind Chill: 33°   Ceiling: 1600
Heat Index: 33°   Visibility: 10mi
Dew Point: 27°   Wind: 0mph
Humidity: 78%   Direction: NA
Pressure: 30.34"   Gusts: NA
Location:  40.8433°N, 74.2009°W
Report Text: KCDW 220253Z AUTO 00000KT 10SM OVC016 01/M03 A3034 RMK AO2 SNE0156 SLP281 P0000 60000 T00061028 58001 TSNO
Loading
Personal Weather Stations






























Interactive Weather Map New forecast layout! Learn more

10-Day Weather Forecast

Advertisements
Track Severe Weather on mobile